Time;durP1;ratioP1;P1;durP2;ratioP2;P2;SDS_P1;SDS_P2;PMS_P1;PMS_P2;Temp;Humidity;BMP_temperature;BMP_pressure;BME280_temperature;BME280_humidity;BME280_pressure;Samples;Min_cycle;Max_cycle;Signal;HPM_P1;HPM_P2
2021/05/12 00:02:08;;;;;;;2.83;1.87;;;;;;;13.68;58.13;99996.41;1693490;84;20900;-74
2021/05/12 00:04:34;;;;;;;3.00;2.10;;;;;;;13.60;57.96;100005.83;1680733;84;21098;-69
2021/05/12 00:07:02;;;;;;;4.25;2.47;;;;;;;13.56;58.04;100009.32;1699177;84;21078;-68
2021/05/12 00:09:28;;;;;;;4.33;3.02;;;;;;;13.49;58.24;100005.48;1676323;84;21015;-68
2021/05/12 00:11:54;;;;;;;6.70;2.05;;;;;;;13.43;58.16;100011.39;1691214;84;21609;-70
2021/05/12 00:14:20;;;;;;;4.78;2.05;;;;;;;13.32;57.92;100011.61;1684078;84;20967;-69
2021/05/12 00:16:47;;;;;;;14.78;3.25;;;;;;;13.25;57.87;100009.11;1694073;84;21110;-70
2021/05/12 00:19:13;;;;;;;7.33;2.20;;;;;;;13.20;57.80;100008.26;1683772;84;21086;-72
2021/05/12 00:21:47;;;;;;;5.53;2.30;;;;;;;13.15;57.70;100013.09;1674223;84;21051;-71
2021/05/12 00:24:10;;;;;;;3.02;2.08;;;;;;;13.08;57.61;100011.13;1677856;84;21587;-72
2021/05/12 00:26:38;;;;;;;5.30;2.65;;;;;;;12.98;57.56;100009.16;1686303;84;21017;-75
2021/05/12 00:29:08;;;;;;;4.62;1.90;;;;;;;12.89;57.51;100016.64;1685138;84;20991;-74
2021/05/12 00:31:34;;;;;;;3.17;1.90;;;;;;;12.78;57.35;100006.28;1684181;84;21535;-69
2021/05/12 00:34:00;;;;;;;3.55;2.00;;;;;;;12.70;57.38;100005.94;1697838;84;21144;-70
2021/05/12 00:36:27;;;;;;;2.58;1.95;;;;;;;12.62;57.51;100009.36;1681105;84;20987;-70
2021/05/12 00:38:53;;;;;;;4.53;1.95;;;;;;;12.55;57.60;100007.95;1689538;84;21041;-70
2021/05/12 00:41:19;;;;;;;7.03;2.17;;;;;;;12.46;57.66;99994.11;1698747;83;21074;-68
2021/05/12 00:43:45;;;;;;;2.42;1.70;;;;;;;12.41;57.77;100002.15;1689895;83;21164;-71
2021/05/12 00:46:12;;;;;;;2.98;1.70;;;;;;;12.38;57.79;100001.83;1657489;84;21065;-68
2021/05/12 00:48:39;;;;;;;4.50;2.45;;;;;;;12.33;57.84;99996.38;1653552;85;21528;-69
2021/05/12 00:51:06;;;;;;;3.52;2.27;;;;;;;12.27;58.02;99999.58;1654076;86;21611;-68
2021/05/12 00:53:33;;;;;;;3.52;2.17;;;;;;;12.22;58.10;99996.29;1664824;85;21137;-66
2021/05/12 00:56:00;;;;;;;3.47;1.35;;;;;;;12.20;58.21;100009.73;1665369;85;21137;-67
2021/05/12 00:58:26;;;;;;;2.65;2.10;;;;;;;12.13;58.26;100007.77;1656272;86;21151;-65
2021/05/12 01:00:52;;;;;;;4.72;2.52;;;;;;;12.03;58.57;100003.08;1666673;85;21114;-66
2021/05/12 01:03:19;;;;;;;12.37;4.35;;;;;;;11.98;58.76;99986.02;1656808;85;21064;-67
2021/05/12 01:05:57;;;;;;;3.10;2.10;;;;;;;11.94;58.83;99982.20;1632411;87;21085;-67
2021/05/12 01:08:23;;;;;;;2.92;2.62;;;;;;;11.88;59.18;99989.41;1677248;84;21042;-67
2021/05/12 01:10:49;;;;;;;6.55;2.98;;;;;;;11.80;59.29;99993.87;1692354;84;21139;-67
2021/05/12 01:13:15;;;;;;;2.55;2.00;;;;;;;11.76;59.44;100002.17;1693795;83;21603;-67
2021/05/12 01:15:43;;;;;;;3.60;2.55;;;;;;;11.73;59.41;100002.69;1691053;84;21057;-67
2021/05/12 01:18:22;;;;;;;3.20;2.50;;;;;;;11.67;59.57;100008.50;1688532;84;21011;-68
2021/05/12 01:20:54;;;;;;;2.55;2.30;;;;;;;11.63;59.66;100006.03;1699932;84;21567;-68
2021/05/12 01:23:23;;;;;;;2.58;1.82;;;;;;;11.57;59.80;100012.93;1685548;84;22014;-67
2021/05/12 01:25:50;;;;;;;2.72;2.10;;;;;;;11.49;59.92;100011.49;1688472;84;20983;-67
2021/05/12 01:28:17;;;;;;;2.35;2.15;;;;;;;11.43;60.12;100000.88;1685380;84;20963;-68
2021/05/12 01:31:03;;;;;;;2.98;2.10;;;;;;;11.37;60.19;100006.72;1695264;83;21087;-69
2021/05/12 01:33:29;;;;;;;4.20;2.20;;;;;;;11.26;60.48;100003.61;1680190;84;21019;-68
2021/05/12 01:35:56;;;;;;;4.90;2.70;;;;;;;11.18;60.64;100001.31;1678614;83;21130;-69
2021/05/12 01:38:23;;;;;;;3.45;1.72;;;;;;;11.09;61.15;100006.30;1686630;84;20955;-69
2021/05/12 01:40:50;;;;;;;2.45;2.25;;;;;;;11.01;61.21;99999.99;1698049;84;21010;-67
2021/05/12 01:43:16;;;;;;;1.75;1.65;;;;;;;10.95;61.41;100007.69;1682556;84;21633;-67
2021/05/12 01:45:42;;;;;;;3.65;2.00;;;;;;;10.91;61.49;100010.59;1645224;85;21089;-67
2021/05/12 01:48:11;;;;;;;1.80;1.70;;;;;;;10.85;61.69;100015.59;1645265;85;21893;-68
2021/05/12 01:50:39;;;;;;;4.10;2.10;;;;;;;10.76;61.90;100009.80;1687791;84;20999;-66
2021/05/12 01:53:06;;;;;;;3.17;2.42;;;;;;;10.71;62.17;100020.47;1688967;84;21046;-67
2021/05/12 01:55:33;;;;;;;3.27;2.20;;;;;;;10.62;62.31;100015.20;1697931;84;21369;-66
2021/05/12 01:57:59;;;;;;;2.27;2.08;;;;;;;10.58;62.50;100014.59;1681745;83;20970;-67
2021/05/12 02:00:36;;;;;;;3.10;2.70;;;;;;;10.50;63.02;100009.87;1698417;84;21054;-68
2021/05/12 02:03:10;;;;;;;2.55;2.08;;;;;;;10.43;63.14;100009.75;1698560;83;21561;-67
2021/05/12 02:05:38;;;;;;;3.12;2.15;;;;;;;10.38;63.27;100003.75;1684314;84;21027;-68
2021/05/12 02:08:07;;;;;;;1.90;1.80;;;;;;;10.36;63.45;100007.75;1678434;84;21054;-67
2021/05/12 02:10:34;;;;;;;3.55;1.90;;;;;;;10.33;63.52;100007.68;1685318;84;20994;-66
2021/05/12 02:13:00;;;;;;;2.10;1.95;;;;;;;10.31;63.61;100009.00;1691497;84;21871;-67
2021/05/12 02:15:26;;;;;;;3.30;2.02;;;;;;;10.27;63.96;100005.95;1694674;84;20951;-66
2021/05/12 02:17:55;;;;;;;2.35;2.15;;;;;;;10.24;64.09;100012.34;1702799;83;20986;-67
2021/05/12 02:20:26;;;;;;;4.45;2.33;;;;;;;10.20;64.17;100009.84;1696564;84;21062;-68
2021/05/12 02:22:52;;;;;;;4.33;2.47;;;;;;;10.15;64.31;100015.91;1700851;83;21066;-67
2021/05/12 02:25:19;;;;;;;3.27;2.42;;;;;;;10.11;64.73;100011.25;1693756;83;21555;-67
2021/05/12 02:27:47;;;;;;;2.30;2.12;;;;;;;10.07;64.96;100013.61;1677372;84;20994;-66
2021/05/12 02:30:13;;;;;;;4.60;2.75;;;;;;;10.03;65.17;100017.28;1686035;84;20993;-69
2021/05/12 02:32:40;;;;;;;3.55;2.22;;;;;;;9.94;65.86;100012.52;1676807;85;21054;-68
2021/05/12 02:35:08;;;;;;;5.12;2.30;;;;;;;9.92;65.91;100014.64;1676954;85;20994;-65
2021/05/12 02:37:35;;;;;;;2.52;1.82;;;;;;;9.85;66.17;100013.94;1678678;84;21152;-68
2021/05/12 02:40:02;;;;;;;7.22;2.42;;;;;;;9.80;66.44;100017.86;1688975;84;21617;-67
2021/05/12 02:42:29;;;;;;;2.20;2.00;;;;;;;9.78;66.40;100018.64;1683061;84;21035;-67
2021/05/12 02:44:55;;;;;;;3.55;2.15;;;;;;;9.78;66.47;100017.30;1688947;84;21015;-67
2021/05/12 02:47:21;;;;;;;2.58;1.57;;;;;;;9.76;66.67;100020.73;1701694;83;21610;-67
2021/05/12 02:49:47;;;;;;;2.95;2.08;;;;;;;9.74;66.78;100024.16;1706655;83;21707;-66
2021/05/12 02:52:13;;;;;;;2.42;2.22;;;;;;;9.68;67.06;100025.95;1717155;83;21021;-66
2021/05/12 02:54:40;;;;;;;2.17;1.67;;;;;;;9.67;67.19;100032.89;1709696;83;20969;-68
2021/05/12 02:57:06;;;;;;;1.95;1.75;;;;;;;9.66;67.01;100028.05;1702678;83;21079;-69
2021/05/12 02:59:33;;;;;;;3.27;2.22;;;;;;;9.68;66.86;100035.35;1717266;83;21086;-71
2021/05/12 03:01:59;;;;;;;2.17;2.00;;;;;;;9.67;66.91;100036.40;1705100;83;21088;-71
2021/05/12 03:04:25;;;;;;;1.70;1.60;;;;;;;9.70;66.76;100031.06;1706381;83;21606;-67
2021/05/12 03:06:52;;;;;;;2.37;2.17;;;;;;;9.69;66.94;100030.80;1698843;83;21114;-69
2021/05/12 03:09:18;;;;;;;3.33;2.33;;;;;;;9.69;67.02;100028.91;1702787;83;21073;-69
2021/05/12 03:11:44;;;;;;;2.30;2.10;;;;;;;9.73;66.82;100023.90;1702535;83;20970;-66
2021/05/12 03:14:11;;;;;;;3.90;2.10;;;;;;;9.75;66.80;100018.57;1695360;83;21114;-67
2021/05/12 03:16:37;;;;;;;2.20;2.00;;;;;;;9.77;66.60;100021.03;1708671;83;21574;-67
2021/05/12 03:19:05;;;;;;;2.25;2.08;;;;;;;9.75;66.65;100022.59;1706084;83;20997;-67
2021/05/12 03:21:33;;;;;;;3.35;2.00;;;;;;;9.78;66.59;100019.98;1694433;83;20954;-67
2021/05/12 03:24:04;;;;;;;5.67;3.50;;;;;;;9.78;66.73;100006.03;1697019;83;21132;-66
2021/05/12 03:26:30;;;;;;;3.52;1.95;;;;;;;9.80;66.65;100007.11;1713536;83;21037;-65
2021/05/12 03:28:56;;;;;;;5.12;3.05;;;;;;;9.80;66.64;100001.22;1694793;83;20960;-66
2021/05/12 03:31:22;;;;;;;9.75;2.47;;;;;;;9.83;66.57;100000.73;1701351;83;20930;-67
2021/05/12 03:33:49;;;;;;;4.15;3.33;;;;;;;9.85;66.68;99997.30;1708313;83;21078;-67
2021/05/12 03:36:15;;;;;;;1.87;1.77;;;;;;;9.86;66.68;100002.14;1694651;83;21643;-69
2021/05/12 03:38:42;;;;;;;2.02;1.75;;;;;;;9.84;66.65;99994.31;1674041;83;21862;-66
2021/05/12 03:41:08;;;;;;;1.40;1.30;;;;;;;9.86;66.76;100000.80;1682050;85;20994;-66
2021/05/12 03:43:35;;;;;;;2.27;2.08;;;;;;;9.88;66.87;99991.44;1660676;86;21102;-67
2021/05/12 03:46:02;;;;;;;2.80;1.70;;;;;;;9.90;66.80;99992.55;1673153;85;21022;-66
2021/05/12 03:48:29;;;;;;;2.02;1.92;;;;;;;9.91;66.77;99984.27;1693486;84;21017;-66
2021/05/12 03:50:55;;;;;;;2.37;1.92;;;;;;;9.93;66.76;99990.20;1697244;84;21048;-67
2021/05/12 03:53:21;;;;;;;2.52;2.37;;;;;;;9.98;66.69;99994.85;1697209;84;21656;-68
2021/05/12 03:55:48;;;;;;;5.62;2.17;;;;;;;10.01;66.72;99999.77;1697375;84;21002;-66
2021/05/12 03:58:14;;;;;;;2.50;2.10;;;;;;;10.03;66.99;100002.50;1684384;84;21101;-66
2021/05/12 04:00:40;;;;;;;10.60;2.77;;;;;;;10.07;66.79;99996.92;1691847;84;21521;-68
2021/05/12 04:03:06;;;;;;;6.05;2.47;;;;;;;10.09;66.82;100002.08;1697229;84;21340;-66
2021/05/12 04:05:32;;;;;;;3.17;2.20;;;;;;;10.12;66.82;100006.17;1686936;84;21560;-66
2021/05/12 04:07:59;;;;;;;3.33;1.95;;;;;;;10.16;66.87;100010.86;1688232;84;21506;-67
2021/05/12 04:10:25;;;;;;;2.50;2.30;;;;;;;10.19;66.69;100018.44;1683753;84;21017;-66
2021/05/12 04:12:52;;;;;;;4.28;2.20;;;;;;;10.26;66.78;100019.13;1697432;84;21105;-66
2021/05/12 04:15:18;;;;;;;3.10;2.37;;;;;;;10.31;66.56;100013.03;1697101;84;21131;-66
2021/05/12 04:17:45;;;;;;;1.75;1.65;;;;;;;10.31;66.37;100007.09;1697042;84;21040;-65
2021/05/12 04:20:14;;;;;;;2.15;1.92;;;;;;;10.33;66.29;100021.13;1697085;84;21051;-66
2021/05/12 04:22:41;;;;;;;2.45;2.05;;;;;;;10.32;66.49;100014.63;1675853;84;21105;-67
2021/05/12 04:25:11;;;;;;;4.62;1.92;;;;;;;10.35;66.44;100014.17;1669397;84;20997;-64
2021/05/12 04:27:37;;;;;;;3.20;1.95;;;;;;;10.35;66.49;100010.14;1696579;84;21036;-66
2021/05/12 04:30:09;;;;;;;2.45;2.20;;;;;;;10.36;66.36;100013.13;1697157;84;21617;-66
2021/05/12 04:32:35;;;;;;;5.05;2.27;;;;;;;10.33;66.57;100018.44;1696868;84;21584;-70
2021/05/12 04:35:03;;;;;;;3.47;2.30;;;;;;;10.36;66.69;100015.26;1680574;84;21030;-65
2021/05/12 04:37:29;;;;;;;5.40;2.62;;;;;;;10.38;66.93;100010.99;1696995;84;20993;-67
2021/05/12 04:39:55;;;;;;;3.22;2.40;;;;;;;10.40;66.89;100021.81;1697241;84;21136;-66
2021/05/12 04:42:22;;;;;;;2.47;2.12;;;;;;;10.39;66.93;100016.14;1697167;84;21582;-67
2021/05/12 04:44:48;;;;;;;4.55;2.52;;;;;;;10.43;66.94;100025.88;1697006;84;21080;-66
2021/05/12 04:47:14;;;;;;;2.08;1.98;;;;;;;10.49;66.73;100016.86;1695015;84;21549;-66
2021/05/12 04:49:40;;;;;;;4.42;2.00;;;;;;;10.54;66.55;100019.64;1689693;84;21014;-66
2021/05/12 04:52:06;;;;;;;4.95;1.87;;;;;;;10.59;66.48;100017.05;1692718;84;21401;-66
2021/05/12 04:54:33;;;;;;;7.67;1.80;;;;;;;10.64;66.27;100013.63;1668134;84;21069;-66
2021/05/12 04:57:01;;;;;;;2.58;2.37;;;;;;;10.66;66.19;100023.07;1692383;84;21097;-66
2021/05/12 04:59:27;;;;;;;1.70;1.60;;;;;;;10.71;66.00;100017.78;1692474;84;21029;-66
2021/05/12 05:01:53;;;;;;;2.75;1.98;;;;;;;10.75;66.39;100015.41;1692473;84;21005;-65
2021/05/12 05:04:21;;;;;;;5.55;2.00;;;;;;;10.77;66.43;100020.04;1692426;84;21856;-65
2021/05/12 05:06:47;;;;;;;2.50;2.10;;;;;;;10.83;66.11;100008.31;1689471;84;21708;-71
2021/05/12 05:09:14;;;;;;;3.87;2.42;;;;;;;10.86;65.77;100011.84;1684167;84;21095;-66
2021/05/12 05:11:41;;;;;;;2.05;1.80;;;;;;;10.93;65.66;100023.28;1679713;84;21101;-68
2021/05/12 05:14:07;;;;;;;2.42;1.80;;;;;;;11.00;65.68;100019.06;1664537;86;21001;-66
2021/05/12 05:16:34;;;;;;;2.65;1.55;;;;;;;11.07;64.80;100023.77;1664445;86;21118;-66
2021/05/12 05:19:00;;;;;;;4.08;1.70;;;;;;;11.11;64.33;100013.62;1664251;86;21025;-66
2021/05/12 05:21:27;;;;;;;7.12;1.70;;;;;;;11.15;64.34;100010.72;1675873;84;21559;-70
2021/05/12 05:23:54;;;;;;;5.37;3.10;;;;;;;11.20;64.15;100017.52;1692372;84;21687;-66
2021/05/12 05:26:21;;;;;;;10.88;3.00;;;;;;;11.23;63.92;100017.02;1692420;84;21022;-66
2021/05/12 05:28:47;;;;;;;8.70;3.55;;;;;;;11.26;63.67;100011.16;1692286;84;21088;-66
2021/05/12 05:31:14;;;;;;;7.53;3.35;;;;;;;11.31;63.51;100017.97;1690502;84;21080;-71
2021/05/12 05:33:58;;;;;;;6.33;3.05;;;;;;;11.33;63.28;100015.02;1664398;86;21645;-68
2021/05/12 05:36:41;;;;;;;11.78;3.10;;;;;;;11.37;63.19;100022.88;1558255;92;21063;-66
2021/05/12 05:39:35;;;;;;;5.30;2.72;;;;;;;11.44;63.14;100025.41;1643368;84;21032;-66
2021/05/12 05:42:13;;;;;;;8.65;3.15;;;;;;;11.49;62.91;100022.27;1692539;84;21840;-67
2021/05/12 05:44:58;;;;;;;7.87;2.70;;;;;;;11.55;62.08;100016.42;1692414;84;20980;-69
2021/05/12 05:47:42;;;;;;;7.22;1.87;;;;;;;11.55;61.23;100005.12;1668102;84;20980;-66
2021/05/12 05:50:27;;;;;;;8.50;2.95;;;;;;;11.59;61.30;100006.25;1678109;84;20961;-65
2021/05/12 05:53:10;;;;;;;9.05;4.55;;;;;;;11.63;60.85;100004.69;1650077;87;21108;-67
2021/05/12 05:55:55;;;;;;;19.27;3.77;;;;;;;11.70;60.24;99997.78;1661815;84;21835;-65
2021/05/12 05:58:39;;;;;;;7.67;2.72;;;;;;;11.78;60.19;100004.10;1668950;86;20965;-66
2021/05/12 06:01:24;;;;;;;3.00;1.70;;;;;;;11.88;59.64;99998.84;1675298;84;21513;-66
2021/05/12 06:03:52;;;;;;;5.92;1.60;;;;;;;11.94;59.08;99996.47;1697142;84;21066;-67
2021/05/12 06:06:35;;;;;;;2.35;1.30;;;;;;;12.00;59.05;99994.66;1649891;87;21142;-65
2021/05/12 06:09:22;;;;;;;3.65;1.75;;;;;;;12.07;58.23;99989.38;1665247;84;21758;-65
2021/05/12 06:12:07;;;;;;;2.17;1.35;;;;;;;12.15;57.26;99991.61;1677788;84;20957;-66
2021/05/12 06:14:52;;;;;;;5.87;1.85;;;;;;;12.22;56.61;99984.16;1697182;84;21045;-67
2021/05/12 06:17:37;;;;;;;4.65;1.92;;;;;;;12.31;56.79;99996.65;1678415;84;21544;-66
2021/05/12 06:20:21;;;;;;;4.00;1.82;;;;;;;12.41;56.66;100000.80;1682344;84;20981;-65
2021/05/12 06:23:06;;;;;;;7.90;2.30;;;;;;;12.52;56.20;100000.34;1669254;84;21185;-66
2021/05/12 06:25:51;;;;;;;4.33;1.62;;;;;;;12.61;55.99;100001.55;1668987;86;20957;-64
2021/05/12 06:28:37;;;;;;;31.87;3.27;;;;;;;12.63;56.05;99993.45;1669202;86;21044;-67
2021/05/12 06:31:21;;;;;;;9.55;2.30;;;;;;;12.69;56.11;99984.88;1692868;84;20957;-65
2021/05/12 06:34:06;;;;;;;3.30;1.40;;;;;;;12.77;56.25;99993.03;1697339;84;21678;-66
2021/05/12 06:36:50;;;;;;;9.08;2.60;;;;;;;12.82;55.66;99996.59;1697096;84;21116;-67
2021/05/12 06:39:35;;;;;;;7.37;2.42;;;;;;;12.84;55.58;99987.72;1670820;84;21077;-65
2021/05/12 06:42:01;;;;;;;2.52;1.62;;;;;;;12.85;55.49;99983.95;1669394;84;21059;-66
2021/05/12 06:44:27;;;;;;;2.85;1.12;;;;;;;12.89;55.48;99982.36;1695774;84;21073;-65
2021/05/12 06:46:54;;;;;;;8.40;3.25;;;;;;;12.94;55.28;99995.08;1697117;84;21100;-65
2021/05/12 06:49:20;;;;;;;11.85;2.22;;;;;;;12.97;54.84;99984.58;1697094;84;21124;-65
2021/05/12 06:51:48;;;;;;;5.53;1.70;;;;;;;13.03;54.17;99990.30;1693830;84;21077;-65
2021/05/12 06:54:14;;;;;;;7.08;1.52;;;;;;;13.10;53.92;99985.48;1696991;84;21503;-65
2021/05/12 06:56:41;;;;;;;9.15;1.57;;;;;;;13.15;53.60;99991.48;1696913;84;20946;-66
2021/05/12 06:59:07;;;;;;;8.73;1.57;;;;;;;13.12;53.66;99986.61;1669659;84;21017;-66
2021/05/12 07:01:33;;;;;;;11.73;2.77;;;;;;;13.12;53.91;99985.79;1683206;84;21222;-65
2021/05/12 07:04:00;;;;;;;3.98;1.95;;;;;;;13.19;54.16;99987.75;1697019;84;21025;-66
2021/05/12 07:06:26;;;;;;;3.85;1.50;;;;;;;13.22;54.14;99984.52;1678803;84;21101;-66
2021/05/12 07:08:52;;;;;;;4.17;1.90;;;;;;;13.24;54.24;99982.35;1668983;86;21067;-69
2021/05/12 07:11:19;;;;;;;8.65;1.77;;;;;;;13.25;54.24;99988.86;1669019;86;21076;-65
2021/05/12 07:13:46;;;;;;;10.15;1.70;;;;;;;13.26;54.48;99995.89;1669299;84;21040;-70
2021/05/12 07:16:12;;;;;;;11.45;1.87;;;;;;;13.23;54.80;99996.42;1677375;84;21001;-66
2021/05/12 07:18:38;;;;;;;4.20;1.72;;;;;;;13.23;55.02;99986.97;1696821;84;20942;-69
2021/05/12 07:21:04;;;;;;;5.65;1.90;;;;;;;13.21;55.18;99989.10;1669018;86;21601;-66
2021/05/12 07:23:31;;;;;;;2.50;1.30;;;;;;;13.21;55.37;99987.75;1684817;84;21573;-67
2021/05/12 07:25:57;;;;;;;3.55;1.65;;;;;;;13.17;55.38;99987.18;1681180;84;21219;-67
2021/05/12 07:28:24;;;;;;;5.28;2.30;;;;;;;13.10;55.73;99983.31;1679065;84;21065;-66
2021/05/12 07:30:50;;;;;;;8.20;2.25;;;;;;;13.15;55.81;99994.72;1668948;86;21133;-64
2021/05/12 07:33:17;;;;;;;7.22;2.83;;;;;;;13.25;55.53;99989.39;1689480;84;21237;-67
2021/05/12 07:35:43;;;;;;;13.00;4.83;;;;;;;13.29;55.03;99985.91;1675118;84;21532;-67
2021/05/12 07:38:10;;;;;;;6.50;2.72;;;;;;;13.31;55.15;99977.02;1668997;86;20997;-66
2021/05/12 07:40:36;;;;;;;7.28;2.77;;;;;;;13.35;55.10;99992.16;1668966;86;21094;-66
2021/05/12 07:43:06;;;;;;;11.45;2.45;;;;;;;13.42;54.86;99986.00;1668945;86;21612;-66
2021/05/12 07:45:35;;;;;;;8.58;2.00;;;;;;;13.44;54.95;99990.59;1669083;86;21046;-67
2021/05/12 07:48:01;;;;;;;3.62;1.60;;;;;;;13.42;55.09;99990.88;1676965;84;21070;-67
2021/05/12 07:50:27;;;;;;;3.42;1.42;;;;;;;13.39;55.09;99987.86;1696943;84;21140;-67
2021/05/12 07:52:54;;;;;;;3.10;1.40;;;;;;;13.36;55.35;99991.09;1688065;84;21111;-67
2021/05/12 07:55:20;;;;;;;3.70;2.33;;;;;;;13.32;55.36;99994.05;1697268;84;20992;-65
2021/05/12 07:57:46;;;;;;;6.75;3.30;;;;;;;13.27;55.45;99992.66;1697216;84;21061;-67
2021/05/12 08:00:14;;;;;;;9.85;1.72;;;;;;;13.29;55.53;99994.55;1697228;84;20978;-67
2021/05/12 08:02:41;;;;;;;3.80;2.15;;;;;;;13.29;55.28;99995.89;1671329;84;21160;-67
2021/05/12 08:05:10;;;;;;;8.58;3.02;;;;;;;13.26;55.66;99992.38;1670789;84;21033;-67
2021/05/12 08:07:37;;;;;;;10.82;2.95;;;;;;;13.25;55.95;99988.86;1669310;84;21097;-68
2021/05/12 08:10:05;;;;;;;9.98;2.15;;;;;;;13.22;55.79;99985.87;1669217;86;21105;-66
2021/05/12 08:12:31;;;;;;;5.17;1.72;;;;;;;13.19;55.87;99979.65;1685314;84;21066;-67
2021/05/12 08:14:57;;;;;;;3.15;1.77;;;;;;;13.22;55.64;99983.98;1697065;84;21676;-67
2021/05/12 08:17:24;;;;;;;8.00;1.82;;;;;;;13.29;55.20;99971.58;1697214;84;20965;-67
2021/05/12 08:19:50;;;;;;;13.35;2.45;;;;;;;13.36;55.27;99974.34;1693519;84;21589;-66
2021/05/12 08:22:16;;;;;;;7.00;2.27;;;;;;;13.42;55.17;99977.91;1670332;84;20982;-67
2021/05/12 08:24:44;;;;;;;3.70;2.40;;;;;;;13.49;55.21;99973.88;1697390;84;21660;-68
2021/05/12 08:27:10;;;;;;;8.75;2.10;;;;;;;13.53;54.70;99972.27;1696874;83;21153;-67
2021/05/12 08:29:37;;;;;;;4.17;1.70;;;;;;;13.56;54.24;99971.48;1697139;84;21001;-66
2021/05/12 08:32:05;;;;;;;14.45;2.30;;;;;;;13.53;54.20;99965.52;1685677;84;21561;-66
2021/05/12 08:34:32;;;;;;;6.60;1.55;;;;;;;13.50;54.42;99960.64;1674100;84;21094;-67
2021/05/12 08:36:58;;;;;;;4.60;1.62;;;;;;;13.47;54.66;99965.23;1676597;84;21064;-67
2021/05/12 08:39:24;;;;;;;4.00;1.70;;;;;;;13.49;54.57;99959.55;1669193;86;22012;-66
2021/05/12 08:41:50;;;;;;;6.95;1.50;;;;;;;13.50;54.46;99957.95;1669008;86;21001;-68
2021/05/12 08:44:17;;;;;;;8.78;1.90;;;;;;;13.56;54.53;99951.22;1669035;86;20953;-66
2021/05/12 08:46:44;;;;;;;6.30;2.08;;;;;;;13.63;54.09;99952.59;1669004;86;21128;-66
2021/05/12 08:49:10;;;;;;;3.20;1.72;;;;;;;13.73;53.71;99945.06;1673327;84;21594;-68
2021/05/12 08:51:37;;;;;;;13.93;2.35;;;;;;;13.78;53.37;99942.38;1697136;84;21013;-65
2021/05/12 08:54:03;;;;;;;6.83;2.45;;;;;;;13.83;53.59;99948.63;1690385;83;21644;-69
2021/05/12 08:56:30;;;;;;;5.75;2.40;;;;;;;13.81;53.40;99948.64;1669106;86;21021;-66
2021/05/12 08:58:58;;;;;;;11.63;3.02;;;;;;;13.74;53.45;99949.41;1673783;84;21053;-65
2021/05/12 09:01:24;;;;;;;7.55;2.90;;;;;;;13.69;53.44;99939.92;1680411;84;21085;-66
2021/05/12 09:03:50;;;;;;;8.40;3.35;;;;;;;13.65;54.00;99949.10;1676291;84;21155;-67
2021/05/12 09:06:16;;;;;;;3.52;2.17;;;;;;;13.64;53.63;99933.95;1678905;84;20941;-68
2021/05/12 09:08:46;;;;;;;4.45;2.65;;;;;;;13.68;53.29;99939.64;1681078;84;20998;-65
2021/05/12 09:11:11;;;;;;;5.45;4.30;;;;;;;13.68;53.15;99943.16;1696912;84;20981;-66
2021/05/12 09:13:38;;;;;;;12.20;2.90;;;;;;;13.64;53.28;99923.14;1697261;84;21021;-68
2021/05/12 09:16:23;;;;;;;2.42;2.12;;;;;;;13.72;53.26;99919.11;1697148;84;22340;-67
2021/05/12 09:19:09;;;;;;;2.77;1.60;;;;;;;13.81;53.23;99923.73;1697107;84;21049;-66
2021/05/12 09:21:57;;;;;;;3.42;0.80;;;;;;;13.93;52.79;99914.05;1697523;84;20993;-74
2021/05/12 09:24:37;;;;;;;3.58;1.12;;;;;;;14.00;52.77;99900.30;1687625;84;21656;-66
2021/05/12 09:27:19;;;;;;;4.65;1.70;;;;;;;14.04;52.51;99907.60;1687398;83;21080;-66
2021/05/12 09:29:45;;;;;;;3.00;1.98;;;;;;;14.12;52.70;99909.77;1696177;84;21280;-69
2021/05/12 09:32:15;;;;;;;1.87;1.77;;;;;;;14.16;52.27;99900.58;1690472;84;21359;-68
2021/05/12 09:35:03;;;;;;;4.17;2.75;;;;;;;14.19;51.61;99913.05;1697074;84;20958;-70
2021/05/12 09:37:40;;;;;;;12.80;2.62;;;;;;;14.23;50.89;99906.55;1688917;84;20993;-72
2021/05/12 09:40:13;;;;;;;3.35;1.40;;;;;;;14.21;50.63;99904.11;1677401;84;20973;-70
2021/05/12 09:42:40;;;;;;;7.92;3.75;;;;;;;14.27;49.01;99907.64;1688340;84;21074;-72
2021/05/12 09:45:16;;;;;;;3.70;2.22;;;;;;;14.35;49.30;99907.91;1696956;84;21085;-72
2021/05/12 09:47:45;;;;;;;3.62;2.20;;;;;;;14.46;49.24;99903.89;1677870;84;20969;-78
2021/05/12 09:50:27;;;;;;;3.20;1.42;;;;;;;14.54;48.52;99887.92;1667551;84;21091;-73
2021/05/12 09:52:58;;;;;;;6.42;1.22;;;;;;;14.61;48.04;99892.53;1665151;84;21108;-71
2021/05/12 09:55:45;;;;;;;3.70;1.10;;;;;;;14.68;47.89;99897.66;1687535;84;20989;-73
2021/05/12 09:58:21;;;;;;;4.50;1.85;;;;;;;14.71;48.13;99899.84;1664150;86;20970;-73
2021/05/12 10:00:48;;;;;;;0.90;0.90;;;;;;;14.82;47.71;99896.02;1664633;86;20957;-73
2021/05/12 10:03:15;;;;;;;3.70;1.10;;;;;;;14.84;47.43;99890.62;1664541;86;20929;-71
2021/05/12 10:06:01;;;;;;;3.90;1.52;;;;;;;14.87;47.72;99893.31;1667805;84;20994;-72
2021/05/12 10:08:32;;;;;;;3.83;1.60;;;;;;;14.94;48.30;99893.04;1690873;84;21156;-72
2021/05/12 10:11:03;;;;;;;1.10;1.00;;;;;;;15.00;47.92;99888.70;1692436;84;20998;-74
2021/05/12 10:13:34;;;;;;;3.27;1.27;;;;;;;15.09;47.22;99891.66;1692422;84;21037;-76
2021/05/12 10:16:01;;;;;;;9.88;2.02;;;;;;;15.10;47.36;99894.11;1692338;84;21041;-77
2021/05/12 10:18:27;;;;;;;6.60;1.67;;;;;;;15.15;47.60;99885.97;1689974;84;21109;-76
2021/05/12 10:20:57;;;;;;;2.08;1.40;;;;;;;15.18;47.18;99880.53;1688523;84;21128;-73
2021/05/12 10:23:21;;;;;;;11.78;1.65;;;;;;;15.20;47.12;99875.09;1663938;86;21629;-73
2021/05/12 10:25:48;;;;;;;11.65;1.92;;;;;;;15.19;46.57;99876.73;1687147;84;20945;-70
2021/05/12 10:28:14;;;;;;;11.68;2.52;;;;;;;15.22;47.14;99874.82;1664225;85;21026;-69
2021/05/12 10:30:40;;;;;;;12.35;2.27;;;;;;;15.23;47.21;99871.84;1671277;84;21066;-71
2021/05/12 10:33:10;;;;;;;3.47;1.32;;;;;;;15.24;46.11;99868.05;1688323;84;21084;-71
2021/05/12 10:35:38;;;;;;;4.08;1.47;;;;;;;15.20;46.52;99864.25;1692043;84;21132;-71
2021/05/12 10:38:05;;;;;;;1.35;1.00;;;;;;;15.25;47.21;99859.39;1690464;84;21012;-73
2021/05/12 10:40:39;;;;;;;10.50;1.45;;;;;;;15.32;47.35;99861.24;1685844;85;20977;-71
2021/05/12 10:45:53;;;;;;;1.30;1.20;;;;;;;15.44;47.13;99850.91;1684972;84;21316;-70
2021/05/12 10:48:43;;;;;;;0.93;0.88;;;;;;;15.51;46.43;99847.38;1690145;84;21585;-71
2021/05/12 10:51:26;;;;;;;6.85;1.98;;;;;;;15.53;46.95;99845.20;1689989;84;20962;-71
2021/05/12 10:53:55;;;;;;;7.53;1.70;;;;;;;15.53;46.88;99837.61;1682099;84;21017;-73
2021/05/12 10:56:23;;;;;;;6.97;1.25;;;;;;;15.55;46.69;99859.81;1664323;84;21602;-70
2021/05/12 10:58:58;;;;;;;11.70;1.82;;;;;;;15.54;46.45;99843.31;1690052;84;21756;-73
2021/05/12 11:01:34;;;;;;;3.47;1.42;;;;;;;15.50;46.44;99838.94;1690014;84;21013;-73
2021/05/12 11:04:03;;;;;;;7.37;1.62;;;;;;;15.49;46.84;99835.95;1672854;84;21001;-73
2021/05/12 11:06:41;;;;;;;1.57;1.10;;;;;;;15.58;46.70;99837.59;1663053;84;21009;-71
2021/05/12 11:09:17;;;;;;;13.68;1.82;;;;;;;15.73;46.33;99842.91;1662504;86;20929;-71
2021/05/12 11:11:53;;;;;;;2.10;0.93;;;;;;;15.85;46.38;99825.77;1662195;86;21094;-74
2021/05/12 11:14:27;;;;;;;4.70;1.67;;;;;;;16.04;45.59;99828.08;1685261;84;21085;-79
2021/05/12 11:17:15;;;;;;;25.25;2.10;;;;;;;16.10;45.43;99823.42;1685840;84;21026;-70
2021/05/12 11:19:48;;;;;;;2.98;1.70;;;;;;;16.12;44.52;99833.44;1664679;84;21001;-70
2021/05/12 11:22:44;;;;;;;12.63;1.87;;;;;;;16.08;44.64;99825.05;1662034;86;21121;-70
2021/05/12 11:25:39;;;;;;;10.58;2.17;;;;;;;16.16;45.01;99821.49;1662146;86;21084;-69
2021/05/12 11:33:34;;;;;;;2.50;1.10;;;;;;;16.17;44.60;99826.61;1690435;84;21145;-69
2021/05/12 11:36:11;;;;;;;3.75;1.20;;;;;;;16.22;44.69;99832.00;1689437;84;21045;-69
2021/05/12 11:38:35;;;;;;;3.42;1.65;;;;;;;16.28;45.05;99820.02;1677262;84;22006;-67
2021/05/12 11:41:16;;;;;;;6.72;1.57;;;;;;;16.36;44.66;99806.38;1662395;84;21013;-71
2021/05/12 11:43:54;;;;;;;5.72;1.12;;;;;;;16.39;44.85;99809.35;1661951;84;21641;-69
2021/05/12 11:46:31;;;;;;;5.53;2.05;;;;;;;16.30;45.33;99811.06;1664220;84;20985;-70
2021/05/12 11:49:10;;;;;;;1.62;1.27;;;;;;;16.22;44.72;99806.77;1678585;84;20946;-68
2021/05/12 11:51:41;;;;;;;3.52;1.87;;;;;;;16.24;44.08;99800.52;1688671;84;21069;-69